sensor_id;sensor_type;location;lat;lon;timestamp;pressure;altitude;pressure_sealevel;temperature;humidity
56894;BME280;43392;50.078;13.704;2023-04-07T00:01:52;97117.59;;;1.33;63.32
56894;BME280;43392;50.078;13.704;2023-04-07T00:04:19;97113.09;;;1.33;63.29
56894;BME280;43392;50.078;13.704;2023-04-07T00:06:46;97113.91;;;1.34;63.33
56894;BME280;43392;50.078;13.704;2023-04-07T00:09:12;97108.63;;;1.34;63.63
56894;BME280;43392;50.078;13.704;2023-04-07T00:11:40;97104.00;;;1.29;63.86
56894;BME280;43392;50.078;13.704;2023-04-07T00:14:07;97110.28;;;1.28;64.13
56894;BME280;43392;50.078;13.704;2023-04-07T00:16:34;97113.16;;;1.27;64.38
56894;BME280;43392;50.078;13.704;2023-04-07T00:19:00;97108.09;;;1.25;63.99
56894;BME280;43392;50.078;13.704;2023-04-07T00:21:27;97110.28;;;1.28;63.74
56894;BME280;43392;50.078;13.704;2023-04-07T00:23:53;97108.47;;;1.29;63.99
56894;BME280;43392;50.078;13.704;2023-04-07T00:26:21;97109.91;;;1.25;63.82
56894;BME280;43392;50.078;13.704;2023-04-07T00:28:49;97112.59;;;1.18;64.07
56894;BME280;43392;50.078;13.704;2023-04-07T00:31:16;97109.63;;;1.08;64.68
56894;BME280;43392;50.078;13.704;2023-04-07T00:33:42;97110.44;;;1.02;65.06
56894;BME280;43392;50.078;13.704;2023-04-07T00:36:09;97103.38;;;0.96;65.23
56894;BME280;43392;50.078;13.704;2023-04-07T00:38:36;97102.78;;;0.94;65.55
56894;BME280;43392;50.078;13.704;2023-04-07T00:41:02;97096.09;;;0.92;65.27
56894;BME280;43392;50.078;13.704;2023-04-07T00:43:29;97093.03;;;0.95;65.43
56894;BME280;43392;50.078;13.704;2023-04-07T00:45:57;97082.50;;;0.88;64.92
56894;BME280;43392;50.078;13.704;2023-04-07T00:48:24;97092.84;;;0.90;65.41
56894;BME280;43392;50.078;13.704;2023-04-07T00:50:50;97082.72;;;0.87;65.16
56894;BME280;43392;50.078;13.704;2023-04-07T00:53:17;97079.69;;;0.83;65.36
56894;BME280;43392;50.078;13.704;2023-04-07T00:55:44;97078.09;;;0.82;65.56
56894;BME280;43392;50.078;13.704;2023-04-07T00:58:11;97081.72;;;0.81;65.89
56894;BME280;43392;50.078;13.704;2023-04-07T01:00:43;97078.28;;;0.81;65.82
56894;BME280;43392;50.078;13.704;2023-04-07T01:03:17;97070.78;;;0.78;65.40
56894;BME280;43392;50.078;13.704;2023-04-07T01:05:50;97069.13;;;0.83;65.43
56894;BME280;43392;50.078;13.704;2023-04-07T01:08:21;97067.06;;;0.85;64.83
56894;BME280;43392;50.078;13.704;2023-04-07T01:10:51;97060.16;;;0.91;64.66
56894;BME280;43392;50.078;13.704;2023-04-07T01:13:22;97057.09;;;0.94;64.33
56894;BME280;43392;50.078;13.704;2023-04-07T01:15:53;97053.81;;;0.98;63.93
56894;BME280;43392;50.078;13.704;2023-04-07T01:18:26;97058.03;;;1.06;63.33
56894;BME280;43392;50.078;13.704;2023-04-07T01:20:59;97055.75;;;1.09;63.49
56894;BME280;43392;50.078;13.704;2023-04-07T01:23:40;97053.75;;;1.11;63.17
56894;BME280;43392;50.078;13.704;2023-04-07T01:26:25;97052.28;;;1.15;63.03
56894;BME280;43392;50.078;13.704;2023-04-07T01:29:17;97050.22;;;1.17;62.89
56894;BME280;43392;50.078;13.704;2023-04-07T01:31:45;97052.22;;;1.22;62.44
56894;BME280;43392;50.078;13.704;2023-04-07T01:34:14;97049.59;;;1.22;62.11
56894;BME280;43392;50.078;13.704;2023-04-07T01:36:43;97049.41;;;1.17;62.96
56894;BME280;43392;50.078;13.704;2023-04-07T01:39:11;97046.06;;;1.03;63.30
56894;BME280;43392;50.078;13.704;2023-04-07T01:41:39;97042.50;;;0.91;63.64
56894;BME280;43392;50.078;13.704;2023-04-07T01:44:07;97048.22;;;0.82;64.04
56894;BME280;43392;50.078;13.704;2023-04-07T01:46:36;97047.63;;;0.80;64.82
56894;BME280;43392;50.078;13.704;2023-04-07T01:49:03;97043.00;;;0.75;64.65
56894;BME280;43392;50.078;13.704;2023-04-07T01:51:31;97050.50;;;0.72;65.04
56894;BME280;43392;50.078;13.704;2023-04-07T01:54:00;97044.41;;;0.71;65.43
56894;BME280;43392;50.078;13.704;2023-04-07T01:56:27;97041.59;;;0.66;64.64
56894;BME280;43392;50.078;13.704;2023-04-07T01:58:54;97047.28;;;0.63;64.76
56894;BME280;43392;50.078;13.704;2023-04-07T02:01:21;97040.41;;;0.62;65.25
56894;BME280;43392;50.078;13.704;2023-04-07T02:03:52;97045.47;;;0.63;65.49
56894;BME280;43392;50.078;13.704;2023-04-07T02:06:22;97047.09;;;0.64;65.78
56894;BME280;43392;50.078;13.704;2023-04-07T02:08:54;97041.59;;;0.66;65.77
56894;BME280;43392;50.078;13.704;2023-04-07T02:11:23;97043.81;;;0.69;65.45
56894;BME280;43392;50.078;13.704;2023-04-07T02:13:52;97045.25;;;0.72;65.39
56894;BME280;43392;50.078;13.704;2023-04-07T02:16:19;97041.16;;;0.76;64.92
56894;BME280;43392;50.078;13.704;2023-04-07T02:18:49;97035.69;;;0.77;64.72
56894;BME280;43392;50.078;13.704;2023-04-07T02:21:15;97029.75;;;0.82;64.75
56894;BME280;43392;50.078;13.704;2023-04-07T02:23:42;97038.44;;;0.89;64.47
56894;BME280;43392;50.078;13.704;2023-04-07T02:26:09;97026.06;;;0.89;64.18
56894;BME280;43392;50.078;13.704;2023-04-07T02:28:36;97033.00;;;0.84;64.12
56894;BME280;43392;50.078;13.704;2023-04-07T02:31:02;97033.69;;;0.73;64.94
56894;BME280;43392;50.078;13.704;2023-04-07T02:33:29;97037.19;;;0.60;65.50
56894;BME280;43392;50.078;13.704;2023-04-07T02:35:57;97023.63;;;0.50;66.06
56894;BME280;43392;50.078;13.704;2023-04-07T02:38:23;97022.22;;;0.47;66.74
56894;BME280;43392;50.078;13.704;2023-04-07T02:40:50;97024.25;;;0.45;66.95
56894;BME280;43392;50.078;13.704;2023-04-07T02:43:17;97022.25;;;0.41;66.93
56894;BME280;43392;50.078;13.704;2023-04-07T02:45:45;97019.63;;;0.41;67.21
56894;BME280;43392;50.078;13.704;2023-04-07T02:48:11;97012.94;;;0.38;67.03
56894;BME280;43392;50.078;13.704;2023-04-07T02:50:38;97014.97;;;0.36;67.33
56894;BME280;43392;50.078;13.704;2023-04-07T02:53:07;97006.44;;;0.34;67.16
56894;BME280;43392;50.078;13.704;2023-04-07T02:55:34;97010.50;;;0.37;67.17
56894;BME280;43392;50.078;13.704;2023-04-07T02:58:01;97012.13;;;0.38;66.79
56894;BME280;43392;50.078;13.704;2023-04-07T03:00:27;97015.78;;;0.37;66.87
56894;BME280;43392;50.078;13.704;2023-04-07T03:02:54;97013.94;;;0.37;66.93
56894;BME280;43392;50.078;13.704;2023-04-07T03:05:21;96997.91;;;0.39;67.09
56894;BME280;43392;50.078;13.704;2023-04-07T03:07:47;97006.41;;;0.47;66.58
56894;BME280;43392;50.078;13.704;2023-04-07T03:10:15;97001.72;;;0.49;66.36
56894;BME280;43392;50.078;13.704;2023-04-07T03:12:42;97010.25;;;0.45;66.22
56894;BME280;43392;50.078;13.704;2023-04-07T03:15:09;97007.66;;;0.38;67.04
56894;BME280;43392;50.078;13.704;2023-04-07T03:17:36;97005.66;;;0.34;67.39
56894;BME280;43392;50.078;13.704;2023-04-07T03:20:03;97001.63;;;0.31;67.25
56894;BME280;43392;50.078;13.704;2023-04-07T03:22:29;97004.03;;;0.33;67.43
56894;BME280;43392;50.078;13.704;2023-04-07T03:24:56;97005.47;;;0.29;67.22
56894;BME280;43392;50.078;13.704;2023-04-07T03:27:24;97002.66;;;0.24;67.91
56894;BME280;43392;50.078;13.704;2023-04-07T03:29:51;97007.34;;;0.22;68.07
56894;BME280;43392;50.078;13.704;2023-04-07T03:32:17;96987.66;;;0.18;67.86
56894;BME280;43392;50.078;13.704;2023-04-07T03:34:44;97000.44;;;0.21;68.30
56894;BME280;43392;50.078;13.704;2023-04-07T03:37:10;96993.13;;;0.23;68.10
56894;BME280;43392;50.078;13.704;2023-04-07T03:39:37;96996.53;;;0.30;67.76
56894;BME280;43392;50.078;13.704;2023-04-07T03:42:05;96990.84;;;0.33;67.77
56894;BME280;43392;50.078;13.704;2023-04-07T03:44:33;96991.03;;;0.38;68.38
56894;BME280;43392;50.078;13.704;2023-04-07T03:47:00;96997.91;;;0.39;68.18
56894;BME280;43392;50.078;13.704;2023-04-07T03:49:26;96993.06;;;0.36;68.46
56894;BME280;43392;50.078;13.704;2023-04-07T03:51:53;96995.94;;;0.28;68.25
56894;BME280;43392;50.078;13.704;2023-04-07T03:54:20;96999.03;;;0.18;68.54
56894;BME280;43392;50.078;13.704;2023-04-07T03:56:46;96998.25;;;0.11;69.00
56894;BME280;43392;50.078;13.704;2023-04-07T03:59:13;97000.06;;;0.11;69.11
56894;BME280;43392;50.078;13.704;2023-04-07T04:01:41;97001.09;;;0.10;69.44
56894;BME280;43392;50.078;13.704;2023-04-07T04:04:07;97004.50;;;0.10;69.51
56894;BME280;43392;50.078;13.704;2023-04-07T04:06:34;97005.94;;;0.13;69.90
56894;BME280;43392;50.078;13.704;2023-04-07T04:09:01;97002.09;;;0.09;69.30
56894;BME280;43392;50.078;13.704;2023-04-07T04:11:27;97004.75;;;0.09;69.42
56894;BME280;43392;50.078;13.704;2023-04-07T04:13:54;97003.31;;;0.06;69.58
56894;BME280;43392;50.078;13.704;2023-04-07T04:16:21;97002.50;;;0.06;69.92
56894;BME280;43392;50.078;13.704;2023-04-07T04:18:49;97003.72;;;0.10;70.01
56894;BME280;43392;50.078;13.704;2023-04-07T04:21:15;97003.72;;;0.10;69.83
56894;BME280;43392;50.078;13.704;2023-04-07T04:23:42;96995.59;;;0.11;69.81
56894;BME280;43392;50.078;13.704;2023-04-07T04:26:08;96982.00;;;0.08;69.99
56894;BME280;43392;50.078;13.704;2023-04-07T04:28:35;96989.69;;;0.16;70.00
56894;BME280;43392;50.078;13.704;2023-04-07T04:31:01;96978.75;;;0.19;69.99
56894;BME280;43392;50.078;13.704;2023-04-07T04:33:28;96985.84;;;0.18;69.81
56894;BME280;43392;50.078;13.704;2023-04-07T04:35:56;96980.56;;;0.18;70.08
56894;BME280;43392;50.078;13.704;2023-04-07T04:38:23;96985.03;;;0.18;70.10
56894;BME280;43392;50.078;13.704;2023-04-07T04:40:50;96983.19;;;0.18;69.68
56894;BME280;43392;50.078;13.704;2023-04-07T04:43:16;96982.19;;;0.19;69.78
56894;BME280;43392;50.078;13.704;2023-04-07T04:45:43;96980.16;;;0.21;70.27
56894;BME280;43392;50.078;13.704;2023-04-07T04:48:09;96985.38;;;0.28;69.83
56894;BME280;43392;50.078;13.704;2023-04-07T04:50:36;96972.38;;;0.33;70.08
56894;BME280;43392;50.078;13.704;2023-04-07T04:53:04;96985.16;;;0.36;69.54
56894;BME280;43392;50.078;13.704;2023-04-07T04:55:30;96990.66;;;0.28;69.92
56894;BME280;43392;50.078;13.704;2023-04-07T04:57:57;96981.97;;;0.21;69.80
56894;BME280;43392;50.078;13.704;2023-04-07T05:00:24;96981.75;;;0.22;70.36
56894;BME280;43392;50.078;13.704;2023-04-07T05:02:50;96980.28;;;0.33;70.97
56894;BME280;43392;50.078;13.704;2023-04-07T05:05:17;96993.25;;;0.41;70.63
56894;BME280;43392;50.078;13.704;2023-04-07T05:07:44;96989.75;;;0.47;70.54
56894;BME280;43392;50.078;13.704;2023-04-07T05:10:12;96982.00;;;0.52;70.42
56894;BME280;43392;50.078;13.704;2023-04-07T05:12:39;96988.47;;;0.56;70.17
56894;BME280;43392;50.078;13.704;2023-04-07T05:15:06;96984.19;;;0.61;70.38
56894;BME280;43392;50.078;13.704;2023-04-07T05:17:33;96978.50;;;0.64;69.76
56894;BME280;43392;50.078;13.704;2023-04-07T05:20:00;96977.47;;;0.65;69.23
56894;BME280;43392;50.078;13.704;2023-04-07T05:22:26;96966.13;;;0.65;69.52
56894;BME280;43392;50.078;13.704;2023-04-07T05:24:53;96971.81;;;0.62;69.98
56894;BME280;43392;50.078;13.704;2023-04-07T05:27:21;96981.31;;;0.63;70.73
56894;BME280;43392;50.078;13.704;2023-04-07T05:29:48;96983.13;;;0.69;71.30
56894;BME280;43392;50.078;13.704;2023-04-07T05:32:14;96983.31;;;0.74;71.54
56894;BME280;43392;50.078;13.704;2023-04-07T05:34:41;96985.06;;;0.80;71.75
56894;BME280;43392;50.078;13.704;2023-04-07T05:37:08;96996.25;;;0.82;71.62
56894;BME280;43392;50.078;13.704;2023-04-07T05:39:34;96982.63;;;0.85;71.00
56894;BME280;43392;50.078;13.704;2023-04-07T05:42:01;96985.88;;;0.87;71.14
56894;BME280;43392;50.078;13.704;2023-04-07T05:44:29;96985.22;;;0.92;71.14
56894;BME280;43392;50.078;13.704;2023-04-07T05:46:56;96991.47;;;0.97;71.29
56894;BME280;43392;50.078;13.704;2023-04-07T05:49:22;96990.63;;;1.03;71.20
56894;BME280;43392;50.078;13.704;2023-04-07T05:51:49;96982.88;;;1.08;70.67
56894;BME280;43392;50.078;13.704;2023-04-07T05:54:15;96984.22;;;1.17;70.82
56894;BME280;43392;50.078;13.704;2023-04-07T05:56:42;96977.03;;;1.24;70.73
56894;BME280;43392;50.078;13.704;2023-04-07T05:59:09;96976.13;;;1.37;71.40
56894;BME280;43392;50.078;13.704;2023-04-07T06:01:37;96986.34;;;1.52;70.57
56894;BME280;43392;50.078;13.704;2023-04-07T06:04:04;96982.78;;;1.64;70.36
56894;BME280;43392;50.078;13.704;2023-04-07T06:06:30;96985.50;;;1.76;70.09
56894;BME280;43392;50.078;13.704;2023-04-07T06:08:57;96980.13;;;1.82;69.50
56894;BME280;43392;50.078;13.704;2023-04-07T06:11:25;96970.09;;;1.91;69.54
56894;BME280;43392;50.078;13.704;2023-04-07T06:13:52;96982.34;;;2.03;69.39
56894;BME280;43392;50.078;13.704;2023-04-07T06:16:18;96968.16;;;2.16;69.53
56894;BME280;43392;50.078;13.704;2023-04-07T06:18:46;96971.38;;;2.36;69.54
56894;BME280;43392;50.078;13.704;2023-04-07T06:21:13;96971.31;;;2.54;69.21
56894;BME280;43392;50.078;13.704;2023-04-07T06:23:39;96960.69;;;2.73;68.96
56894;BME280;43392;50.078;13.704;2023-04-07T06:26:09;96959.56;;;2.80;68.07
56894;BME280;43392;50.078;13.704;2023-04-07T06:28:36;96954.81;;;2.71;67.88
56894;BME280;43392;50.078;13.704;2023-04-07T06:31:02;96957.47;;;2.71;68.57
56894;BME280;43392;50.078;13.704;2023-04-07T06:33:29;96956.91;;;2.68;68.78
56894;BME280;43392;50.078;13.704;2023-04-07T06:35:57;96963.44;;;2.66;69.13
56894;BME280;43392;50.078;13.704;2023-04-07T06:38:24;96968.06;;;2.71;69.53
56894;BME280;43392;50.078;13.704;2023-04-07T06:40:51;96968.88;;;2.71;69.46
56894;BME280;43392;50.078;13.704;2023-04-07T06:43:17;96970.47;;;2.72;68.89
56894;BME280;43392;50.078;13.704;2023-04-07T06:45:44;96975.56;;;2.74;68.15
56894;BME280;43392;50.078;13.704;2023-04-07T06:48:10;96980.84;;;2.74;68.39
56894;BME280;43392;50.078;13.704;2023-04-07T06:50:37;96977.25;;;2.68;68.34
56894;BME280;43392;50.078;13.704;2023-04-07T06:53:05;96985.31;;;2.61;68.70
56894;BME280;43392;50.078;13.704;2023-04-07T06:55:32;96982.97;;;2.53;68.28
56894;BME280;43392;50.078;13.704;2023-04-07T06:57:58;96982.16;;;2.53;68.17
56894;BME280;43392;50.078;13.704;2023-04-07T07:00:25;96983.22;;;2.63;68.15
56894;BME280;43392;50.078;13.704;2023-04-07T07:02:54;96975.56;;;2.74;67.81
56894;BME280;43392;50.078;13.704;2023-04-07T07:05:21;96975.59;;;2.85;67.59
56894;BME280;43392;50.078;13.704;2023-04-07T07:07:48;96970.06;;;2.98;67.79
56894;BME280;43392;50.078;13.704;2023-04-07T07:10:16;96975.66;;;3.20;67.45
56894;BME280;43392;50.078;13.704;2023-04-07T07:12:44;96976.84;;;3.35;66.96
56894;BME280;43392;50.078;13.704;2023-04-07T07:15:11;96979.38;;;3.42;66.02
56894;BME280;43392;50.078;13.704;2023-04-07T07:17:37;96985.59;;;3.48;64.91
56894;BME280;43392;50.078;13.704;2023-04-07T07:20:05;96979.72;;;3.57;65.60
56894;BME280;43392;50.078;13.704;2023-04-07T07:22:32;96986.41;;;3.71;65.71
56894;BME280;43392;50.078;13.704;2023-04-07T07:24:59;96980.97;;;3.78;64.65
56894;BME280;43392;50.078;13.704;2023-04-07T07:27:27;96974.63;;;3.79;64.76
56894;BME280;43392;50.078;13.704;2023-04-07T07:29:53;96981.56;;;3.91;64.83
56894;BME280;43392;50.078;13.704;2023-04-07T07:32:20;96979.13;;;4.01;64.03
56894;BME280;43392;50.078;13.704;2023-04-07T07:34:47;96978.75;;;4.10;62.74
56894;BME280;43392;50.078;13.704;2023-04-07T07:37:14;96985.09;;;4.09;63.07
56894;BME280;43392;50.078;13.704;2023-04-07T07:39:40;96989.47;;;4.15;62.82
56894;BME280;43392;50.078;13.704;2023-04-07T07:42:07;96995.44;;;4.22;64.36
56894;BME280;43392;50.078;13.704;2023-04-07T07:44:35;96994.16;;;4.36;65.53
56894;BME280;43392;50.078;13.704;2023-04-07T07:47:02;96989.03;;;4.46;65.49
56894;BME280;43392;50.078;13.704;2023-04-07T07:49:28;96995.03;;;4.53;65.31
56894;BME280;43392;50.078;13.704;2023-04-07T07:51:55;96988.69;;;4.54;63.02
56894;BME280;43392;50.078;13.704;2023-04-07T07:54:23;96991.69;;;4.57;63.64
56894;BME280;43392;50.078;13.704;2023-04-07T07:56:50;96993.38;;;4.63;65.33
56894;BME280;43392;50.078;13.704;2023-04-07T07:59:17;96997.97;;;4.68;64.78
56894;BME280;43392;50.078;13.704;2023-04-07T08:01:45;96986.78;;;4.66;63.27
56894;BME280;43392;50.078;13.704;2023-04-07T08:04:11;96992.44;;;4.69;62.77
56894;BME280;43392;50.078;13.704;2023-04-07T08:06:38;96995.41;;;4.73;62.18
56894;BME280;43392;50.078;13.704;2023-04-07T08:09:05;96993.81;;;4.72;62.10
56894;BME280;43392;50.078;13.704;2023-04-07T08:11:31;96995.97;;;4.75;61.41
56894;BME280;43392;50.078;13.704;2023-04-07T08:13:58;96989.06;;;4.74;61.61
56894;BME280;43392;50.078;13.704;2023-04-07T08:16:25;96996.88;;;4.81;61.02
56894;BME280;43392;50.078;13.704;2023-04-07T08:18:53;96998.34;;;4.88;60.98
56894;BME280;43392;50.078;13.704;2023-04-07T08:21:20;97001.84;;;5.05;61.15
56894;BME280;43392;50.078;13.704;2023-04-07T08:23:47;97002.34;;;5.19;60.10
56894;BME280;43392;50.078;13.704;2023-04-07T08:26:13;97000.69;;;5.29;60.47
56894;BME280;43392;50.078;13.704;2023-04-07T08:28:40;97016.81;;;5.40;59.85
56894;BME280;43392;50.078;13.704;2023-04-07T08:31:07;97007.63;;;5.47;59.58
56894;BME280;43392;50.078;13.704;2023-04-07T08:33:33;97006.16;;;5.56;59.54
56894;BME280;43392;50.078;13.704;2023-04-07T08:36:02;97002.84;;;5.66;59.21
56894;BME280;43392;50.078;13.704;2023-04-07T08:38:28;97001.88;;;5.72;58.75
56894;BME280;43392;50.078;13.704;2023-04-07T08:41:00;97004.84;;;5.75;58.17
56894;BME280;43392;50.078;13.704;2023-04-07T08:43:28;97001.94;;;5.77;57.36
56894;BME280;43392;50.078;13.704;2023-04-07T08:45:56;97011.97;;;5.86;57.30
56894;BME280;43392;50.078;13.704;2023-04-07T08:48:23;96996.97;;;5.97;56.95
56894;BME280;43392;50.078;13.704;2023-04-07T08:50:52;97008.78;;;6.06;56.68
56894;BME280;43392;50.078;13.704;2023-04-07T08:53:23;97006.19;;;6.11;55.22
56894;BME280;43392;50.078;13.704;2023-04-07T08:55:52;97002.56;;;6.17;53.80
56894;BME280;43392;50.078;13.704;2023-04-07T08:58:20;96993.56;;;6.23;54.17
56894;BME280;43392;50.078;13.704;2023-04-07T09:00:47;96999.09;;;6.38;54.42
56894;BME280;43392;50.078;13.704;2023-04-07T09:03:14;97001.50;;;6.61;53.97
56894;BME280;43392;50.078;13.704;2023-04-07T09:05:43;96995.31;;;6.78;53.36
56894;BME280;43392;50.078;13.704;2023-04-07T09:08:10;96995.91;;;6.85;53.05
56894;BME280;43392;50.078;13.704;2023-04-07T09:10:38;97000.59;;;6.99;52.47
56894;BME280;43392;50.078;13.704;2023-04-07T09:13:05;96999.59;;;7.05;52.00
56894;BME280;43392;50.078;13.704;2023-04-07T09:15:31;96991.63;;;7.10;51.08
56894;BME280;43392;50.078;13.704;2023-04-07T09:17:58;96999.94;;;7.14;50.36
56894;BME280;43392;50.078;13.704;2023-04-07T09:20:25;97002.13;;;7.22;51.08
56894;BME280;43392;50.078;13.704;2023-04-07T09:22:52;96988.91;;;7.32;51.69
56894;BME280;43392;50.078;13.704;2023-04-07T09:25:20;97001.50;;;7.42;50.70
56894;BME280;43392;50.078;13.704;2023-04-07T09:27:56;96993.31;;;7.48;50.73
56894;BME280;43392;50.078;13.704;2023-04-07T09:30:23;96981.13;;;7.57;49.98
56894;BME280;43392;50.078;13.704;2023-04-07T09:32:50;96988.06;;;7.63;49.37
56894;BME280;43392;50.078;13.704;2023-04-07T09:35:17;96988.16;;;7.73;48.97
56894;BME280;43392;50.078;13.704;2023-04-07T09:37:44;96972.97;;;7.74;47.09
56894;BME280;43392;50.078;13.704;2023-04-07T09:40:11;96980.66;;;7.70;47.60
56894;BME280;43392;50.078;13.704;2023-04-07T09:42:51;96976.13;;;7.71;47.00
56894;BME280;43392;50.078;13.704;2023-04-07T09:45:24;96967.88;;;7.72;46.05
56894;BME280;43392;50.078;13.704;2023-04-07T09:47:52;96966.59;;;7.80;46.80
56894;BME280;43392;50.078;13.704;2023-04-07T09:50:30;96970.16;;;7.95;46.78
56894;BME280;43392;50.078;13.704;2023-04-07T09:52:56;96958.59;;;7.85;46.23
56894;BME280;43392;50.078;13.704;2023-04-07T09:55:23;96970.66;;;7.92;45.72
56894;BME280;43392;50.078;13.704;2023-04-07T09:57:50;96957.63;;;7.96;44.64
56894;BME280;43392;50.078;13.704;2023-04-07T10:00:17;96967.28;;;8.07;44.61
56894;BME280;43392;50.078;13.704;2023-04-07T10:02:45;96963.06;;;8.21;44.58
56894;BME280;43392;50.078;13.704;2023-04-07T10:05:12;96953.81;;;8.34;43.84
56894;BME280;43392;50.078;13.704;2023-04-07T10:07:39;96958.94;;;8.50;43.81
56894;BME280;43392;50.078;13.704;2023-04-07T10:10:07;96955.53;;;8.65;43.57
56894;BME280;43392;50.078;13.704;2023-04-07T10:12:34;96958.75;;;8.72;43.76
56894;BME280;43392;50.078;13.704;2023-04-07T10:15:03;96956.38;;;8.76;43.50
56894;BME280;43392;50.078;13.704;2023-04-07T10:17:30;96954.50;;;8.76;43.81
56894;BME280;43392;50.078;13.704;2023-04-07T10:20:00;96966.28;;;8.80;44.35
56894;BME280;43392;50.078;13.704;2023-04-07T10:22:28;96957.75;;;8.88;44.29
56894;BME280;43392;50.078;13.704;2023-04-07T10:24:58;96951.88;;;8.91;43.96
56894;BME280;43392;50.078;13.704;2023-04-07T10:27:30;96953.47;;;8.92;44.08
56894;BME280;43392;50.078;13.704;2023-04-07T10:29:57;96947.00;;;8.73;42.65
56894;BME280;43392;50.078;13.704;2023-04-07T10:32:24;96952.88;;;8.75;43.71
56894;BME280;43392;50.078;13.704;2023-04-07T10:34:55;96939.03;;;8.83;43.69
56894;BME280;43392;50.078;13.704;2023-04-07T10:37:23;96939.00;;;8.78;43.43
56894;BME280;43392;50.078;13.704;2023-04-07T10:39:52;96946.22;;;8.83;44.07
56894;BME280;43392;50.078;13.704;2023-04-07T10:42:44;96932.34;;;8.86;43.31
56894;BME280;43392;50.078;13.704;2023-04-07T10:45:11;96938.47;;;8.81;43.95
56894;BME280;43392;50.078;13.704;2023-04-07T10:48:10;96946.78;;;8.90;43.35
56894;BME280;43392;50.078;13.704;2023-04-07T10:50:38;96933.38;;;8.80;43.80
56894;BME280;43392;50.078;13.704;2023-04-07T10:53:07;96947.06;;;8.93;44.21
56894;BME280;43392;50.078;13.704;2023-04-07T10:55:36;96936.13;;;9.10;44.26
56894;BME280;43392;50.078;13.704;2023-04-07T10:58:20;96934.50;;;9.14;43.19
56894;BME280;43392;50.078;13.704;2023-04-07T11:03:55;96938.00;;;9.19;44.18
56894;BME280;43392;50.078;13.704;2023-04-07T11:06:22;96930.50;;;9.37;56.34
56894;BME280;43392;50.078;13.704;2023-04-07T11:08:50;96943.00;;;9.96;48.26
56894;BME280;43392;50.078;13.704;2023-04-07T11:11:35;96930.41;;;10.17;45.09
56894;BME280;43392;50.078;13.704;2023-04-07T11:14:02;96935.19;;;10.20;44.81
56894;BME280;43392;50.078;13.704;2023-04-07T11:16:37;96930.38;;;10.22;45.96
56894;BME280;43392;50.078;13.704;2023-04-07T11:19:04;96934.66;;;10.28;46.60
56894;BME280;43392;50.078;13.704;2023-04-07T11:21:30;96922.31;;;10.27;43.92
56894;BME280;43392;50.078;13.704;2023-04-07T11:23:58;96933.63;;;10.19;44.75
56894;BME280;43392;50.078;13.704;2023-04-07T11:26:26;96920.75;;;10.21;43.92
56894;BME280;43392;50.078;13.704;2023-04-07T11:28:54;96929.81;;;10.25;45.42
56894;BME280;43392;50.078;13.704;2023-04-07T11:31:22;96926.63;;;10.23;43.08
56894;BME280;43392;50.078;13.704;2023-04-07T11:33:53;96931.44;;;10.11;43.51
56894;BME280;43392;50.078;13.704;2023-04-07T11:36:28;96926.94;;;10.01;43.51
56894;BME280;43392;50.078;13.704;2023-04-07T11:38:56;96920.78;;;9.91;43.49
56894;BME280;43392;50.078;13.704;2023-04-07T11:41:25;96931.25;;;9.87;43.33
56894;BME280;43392;50.078;13.704;2023-04-07T11:44:06;96924.28;;;9.86;43.56
56894;BME280;43392;50.078;13.704;2023-04-07T11:46:33;96925.63;;;9.84;43.82
56894;BME280;43392;50.078;13.704;2023-04-07T11:49:11;96929.94;;;9.80;43.87
56894;BME280;43392;50.078;13.704;2023-04-07T11:51:38;96922.13;;;9.88;44.72
56894;BME280;43392;50.078;13.704;2023-04-07T11:54:04;96918.38;;;9.99;43.78
56894;BME280;43392;50.078;13.704;2023-04-07T11:56:42;96926.91;;;10.17;43.21
56894;BME280;43392;50.078;13.704;2023-04-07T11:59:18;96912.97;;;10.10;41.78
56894;BME280;43392;50.078;13.704;2023-04-07T12:01:47;96919.69;;;10.02;42.66
56894;BME280;43392;50.078;13.704;2023-04-07T12:04:13;96916.22;;;10.01;42.61
56894;BME280;43392;50.078;13.704;2023-04-07T12:06:40;96912.44;;;10.08;42.91
56894;BME280;43392;50.078;13.704;2023-04-07T12:09:07;96918.34;;;10.15;43.06
56894;BME280;43392;50.078;13.704;2023-04-07T12:11:34;96914.03;;;10.19;42.42
56894;BME280;43392;50.078;13.704;2023-04-07T12:14:03;96912.41;;;10.23;42.25
56894;BME280;43392;50.078;13.704;2023-04-07T12:16:30;96908.38;;;10.30;42.00
56894;BME280;43392;50.078;13.704;2023-04-07T12:18:58;96907.31;;;10.31;42.25
56894;BME280;43392;50.078;13.704;2023-04-07T12:21:24;96910.72;;;10.42;41.92
56894;BME280;43392;50.078;13.704;2023-04-07T12:23:51;96915.53;;;10.45;42.05
56894;BME280;43392;50.078;13.704;2023-04-07T12:26:18;96918.00;;;10.41;41.39
56894;BME280;43392;50.078;13.704;2023-04-07T12:28:46;96908.88;;;10.37;41.15
56894;BME280;43392;50.078;13.704;2023-04-07T12:31:14;96914.22;;;10.37;42.26
56894;BME280;43392;50.078;13.704;2023-04-07T12:33:41;96918.75;;;10.42;41.85
56894;BME280;43392;50.078;13.704;2023-04-07T12:36:07;96912.63;;;10.41;41.22
56894;BME280;43392;50.078;13.704;2023-04-07T12:38:34;96906.22;;;10.32;41.62
56894;BME280;43392;50.078;13.704;2023-04-07T12:41:01;96909.72;;;10.28;41.65
56894;BME280;43392;50.078;13.704;2023-04-07T12:43:28;96908.13;;;10.27;42.11
56894;BME280;43392;50.078;13.704;2023-04-07T12:45:55;96911.38;;;10.19;41.12
56894;BME280;43392;50.078;13.704;2023-04-07T12:48:23;96912.69;;;10.11;41.72
56894;BME280;43392;50.078;13.704;2023-04-07T12:50:51;96900.41;;;10.05;41.56
56894;BME280;43392;50.078;13.704;2023-04-07T12:53:18;96909.22;;;10.11;42.08
56894;BME280;43392;50.078;13.704;2023-04-07T12:55:46;96908.97;;;10.17;41.83
56894;BME280;43392;50.078;13.704;2023-04-07T12:58:12;96906.53;;;10.21;41.82
56894;BME280;43392;50.078;13.704;2023-04-07T13:00:39;96897.16;;;10.23;41.73
56894;BME280;43392;50.078;13.704;2023-04-07T13:03:06;96901.44;;;10.24;42.02
56894;BME280;43392;50.078;13.704;2023-04-07T13:05:35;96901.16;;;10.26;41.55
56894;BME280;43392;50.078;13.704;2023-04-07T13:08:02;96896.84;;;10.25;41.38